Terminal Aerodrome Forecast
Issued by NWS

Current Version | Previous Version | Text Only | Print | Product List | Glossary On
Versions: 1 2 3 4 5 6 7 8 9 10 11 12 13 14 15 16
000
FTUS44 KLIX 171743
TAFMSY
TAF
KMSY 171743Z 1718/1824 00000KT 3SM -RA BR VCSH BKN050 OVC070
     FM172200 16004KT 4SM BR VCSH OVC025
     FM180500 17004KT 1SM BR VCSH OVC010
     FM180700 00000KT 1/2SM FG VCSH OVC004
     FM181600 12004KT 1 1/2SM SHRA BR OVC003
     FM181800 13005KT P6SM OVC010 PROB30 1818/1820 4SM -SHRA OVC003
     FM182000 13006KT P6SM OVC025 PROB30 1820/1824 2SM -SHRA OVC015=

USA.gov is the U.S. government's official web portal to all federal, state and local government web resources and services.